Terminal Aerodrome Forecast
Issued by NWS Cleveland, OH

Home | Current Version | Previous Version | Graphics & Text | Print | Product List | Glossary Off
Versions: 1 2 3 4 5 6 7 8 9 10 11 12 13 14 15 16 17 18 19 20 21 22 23 24 25

000
FTUS41 KCLE 221100
TAFMFD
TAF
KMFD 221124Z 2212/2312 VRB03KT 3SM BR SCT002 OVC008
      TEMPO 2212/2214 1/2SM FG VV002
     FM221600 18004KT P6SM BKN025 OVC100
     FM221900 VRB04KT P6SM VCTS SCT015 OVC035CB
     FM230300 VRB03KT 4SM BR FEW015 BKN150
     FM230800 VRB03KT 1/2SM FG BKN003=

USA.gov is the U.S. government's official web portal to all federal, state and local government web resources and services.